• Join FlightAware (Why Join?)
  • Login
  • US Flag 
12:29AM EDT


 

Airport Tracker/Info


-or-


 

Live Flight TrackerFlight Track Log ✈ DAL1117 ✈ 20-Feb-2014 ✈ KTPA - KLGA

Flight Track Log - Related Links

Times and Time Zones

All times are in EST time to prevent confusion due to time zone crossing. See the DAL1117 flight status page for this flight to view local times or setup timezone preferences in your user account.

Time Position Orientation Groundspeed Altitude Reporting Facility
EST Latitude Longitude Course Direction KTS MPH feet Rate Location/Type
08:16AM 27.9667 -82.5500 355° North 153 176 800  Level Tampa TRACON
08:16AM 27.9333 -82.5500 180° South 179 206 1,700 2,100 Climbing Tampa TRACON
08:17AM 27.9167 -82.6333 257° West 276 318 4,200 2,760 Climbing Tampa TRACON
08:18AM 27.9500 -82.7000 300° West 299 344 7,300 2,220 Climbing Tampa TRACON
08:19AM 28.3137 -82.5667 North  Level FlightAware Approximate
08:20AM 28.4314 -82.5715 355° North  Level FlightAware Approximate
08:21AM 28.5489 -82.5832 355° North  Level FlightAware Approximate
08:21AM 28.1456 -82.6547 12° North 317 365 11,700  Level Jacksonville Center
08:22AM 28.2581 -82.6169 16° North 353 406 14,000 2,340 Climbing Jacksonville Center
08:23AM 28.3728 -82.5811 15° North 391 450 16,400 2,160 Climbing Jacksonville Center
08:24AM 28.4939 -82.5808 360° North 417 480 18,400 1,800 Climbing Jacksonville Center
08:25AM 28.6128 -82.5875 357° North 429 494 20,000 1,620 Climbing Jacksonville Center
08:26AM 28.7381 -82.5967 356° North 440 506 21,700 1,740 Climbing Jacksonville Center
08:27AM 28.8633 -82.6128 354° North 446 513 23,500 1,860 Climbing Jacksonville Center
08:28AM 28.9908 -82.6314 353° North 451 519 25,500 1,920 Climbing Jacksonville Center
08:29AM 29.1139 -82.6478 353° North 451 519 27,400 1,920 Climbing Jacksonville Center
08:30AM 29.2372 -82.6664 352° North 445 512 29,400 1,620 Climbing Jacksonville Center
08:31AM 29.3561 -82.6828 353° North 445 512 30,700 1,140 Climbing Jacksonville Center
08:32AM 29.4772 -82.6897 357° North 440 506 31,700 900 Climbing Jacksonville Center
08:33AM 29.5900 -82.6944 358° North 446 513 32,600 900 Climbing Jacksonville Center
08:34AM 29.7111 -82.6917 North 436 502 33,600 900 Climbing Jacksonville Center
08:35AM 29.8322 -82.6914 360° North 431 496 34,500 660 Climbing Jacksonville Center
08:36AM 29.9531 -82.6911 360° North 431 496 35,000 240 Climbing Jacksonville Center
08:37AM 30.0889 -82.6836 North 431 496 35,000  Level Jacksonville Center
08:38AM 30.2119 -82.6833 360° North 436 502 35,000  Level Jacksonville Center
08:39AM 30.3372 -82.6831 360° North 436 502 35,000  Level Jacksonville Center
08:40AM 30.4606 -82.6806 North 436 502 35,000  Level Jacksonville Center
08:41AM 30.5692 -82.6586 10° North 436 502 35,000  Level Jacksonville Center
08:42AM 30.6881 -82.6003 23° Northeast 441 507 35,000  Level Jacksonville Center
08:43AM 30.8069 -82.5419 23° Northeast 447 514 35,000  Level Jacksonville Center
08:44AM 30.9256 -82.4858 22° Northeast 452 520 35,000  Level Jacksonville Center
08:45AM 31.0425 -82.4269 23° Northeast 452 520 35,000 -60 Level Jacksonville Center
08:46AM 31.1633 -82.3681 23° Northeast 457 526 34,900  Descending Jacksonville Center
08:47AM 31.2819 -82.3092 23° Northeast 457 526 35,000  Climbing Jacksonville Center
08:48AM 31.4008 -82.2525 22° Northeast 457 526 35,000  Level Jacksonville Center
08:49AM 31.5175 -82.1981 22° Northeast 457 526 35,000  Level Jacksonville Center
08:50AM 31.6486 -82.1286 24° Northeast 457 526 35,000  Level Jacksonville Center
08:51AM 31.7567 -82.0764 22° Northeast 457 526 35,000  Level Jacksonville Center
08:52AM 31.8858 -82.0117 23° Northeast 457 526 35,000  Level Jacksonville Center
08:53AM 31.9878 -81.9494 27° Northeast 457 526 35,000  Level Jacksonville Center
08:54AM 32.1017 -81.8428 38° Northeast 470 541 35,000  Level Jacksonville Center
08:55AM 32.2050 -81.7411 40° Northeast 475 547 35,000  Level Jacksonville Center
08:56AM 32.2961 -81.6489 41° Northeast 475 547 35,000  Level Jacksonville Center
08:57AM 32.4078 -81.5417 39° Northeast 475 547 35,000  Level Jacksonville Center
08:58AM 32.5089 -81.4392 41° Northeast 475 547 35,000  Level Jacksonville Center
08:59AM 32.5997 -81.3489 40° Northeast 475 547 35,000  Level Jacksonville Center
09:00AM 32.7008 -81.2461 41° Northeast 475 547 35,000  Level Jacksonville Center
09:01AM 32.7994 -81.1453 41° Northeast 475 547 35,000 -60 Level Jacksonville Center
09:02AM 32.9025 -81.0444 39° Northeast 475 547 34,900  Descending Jacksonville Center
09:03AM 33.0031 -80.9383 41° Northeast 475 547 35,000  Climbing Jacksonville Center
09:04AM 33.1039 -80.8344 41° Northeast 475 547 34,900  Descending Jacksonville Center
09:05AM 33.2044 -80.7328 40° Northeast 475 547 35,000  Climbing Jacksonville Center
09:06AM 33.3028 -80.6311 41° Northeast 475 547 35,000  Level Jacksonville Center
09:07AM 33.4053 -80.5264 40° Northeast 475 547 35,000  Level Jacksonville Center
09:08AM 33.5033 -80.4242 41° Northeast 475 547 35,000  Level Jacksonville Center
09:09AM 33.6036 -80.3217 40° Northeast 475 547 35,000  Level Jacksonville Center
09:10AM 33.7017 -80.2189 41° Northeast 475 547 35,000  Level Jacksonville Center
09:11AM 33.8097 -80.1056 41° Northeast 475 547 35,000  Level Jacksonville Center
09:12AM 33.9097 -80.0022 41° Northeast 475 547 35,000  Level Jacksonville Center
09:13AM 34.0094 -79.8964 41° Northeast 475 547 35,000  Level Jacksonville Center
09:14AM 34.1072 -79.7928 41° Northeast 475 547 35,000  Level Jacksonville Center
09:15AM 34.2047 -79.6889 41° Northeast 475 547 35,000  Level Jacksonville Center
09:17AM 34.4633 -79.5392 26° Northeast 443 510 35,000  Level Washington Center
09:18AM 34.5886 -79.4744 23° Northeast 443 510 35,000  Level Washington Center
09:19AM 34.6906 -79.4211 23° Northeast 443 510 35,000  Level Washington Center
09:20AM 34.8136 -79.3586 23° Northeast 443 510 35,000  Level Washington Center
09:21AM 34.9267 -79.2803 30° Northeast 443 510 35,000  Level Washington Center
09:22AM 35.0333 -79.2042 30° Northeast 448 516 35,000  Level Washington Center
09:23AM 35.1439 -79.1278 29° Northeast 448 516 35,000  Level Washington Center
09:24AM 35.2569 -79.0461 31° Northeast 456 525 35,000  Level Washington Center
09:25AM 35.3633 -78.9719 30° Northeast 449 517 35,000  Level Washington Center
09:26AM 35.4614 -78.9019 30° Northeast 444 511 35,000  Level Washington Center
09:27AM 35.5806 -78.8203 29° Northeast 449 517 35,000  Level Washington Center
09:28AM 35.6889 -78.7503 28° Northeast 454 522 35,000  Level Washington Center
09:29AM 35.7994 -78.6678 31° Northeast 445 512 35,000  Level Washington Center
09:30AM 35.9081 -78.5847 32° Northeast 451 519 35,000  Level Washington Center
09:31AM 36.0081 -78.5064 32° Northeast 463 533 35,000  Level Washington Center
09:32AM 36.1158 -78.4408 26° Northeast 455 524 35,000  Level Washington Center
09:33AM 36.2347 -78.3550 30° Northeast 450 518 35,000  Level Washington Center
09:34AM 36.3344 -78.2839 30° Northeast 450 518 35,000  Level Washington Center
09:35AM 36.4475 -78.1792 37° Northeast 455 524 35,000  Level Washington Center
09:36AM 36.5517 -78.0844 36° Northeast 457 526 35,000  Level Washington Center
09:37AM 36.6536 -77.9894 37° Northeast 462 532 35,000  Level Washington Center
09:38AM 36.7578 -77.8889 38° Northeast 467 537 35,000  Level Washington Center
09:39AM 36.8619 -77.7908 37° Northeast 467 537 35,000  Level Washington Center
09:40AM 36.9617 -77.6947 38° Northeast 467 537 35,000  Level Washington Center
09:41AM 37.0656 -77.5961 37° Northeast 467 537 35,000  Level Washington Center
09:42AM 37.1694 -77.4972 37° Northeast 467 537 35,000  Level Washington Center
09:43AM 37.2711 -77.3953 39° Northeast 467 537 35,000  Level Washington Center
09:44AM 37.3747 -77.2983 37° Northeast 467 537 35,000  Level Washington Center
09:45AM 37.4806 -77.1986 37° Northeast 467 537 35,000  Level Washington Center
09:46AM 37.5861 -77.0933 38° Northeast 467 537 35,000  Level Washington Center
09:47AM 37.6875 -76.9931 38° Northeast 467 537 35,000  Level Washington Center
09:48AM 37.7886 -76.8925 38° Northeast 467 537 35,000  Level Washington Center
09:49AM 37.8939 -76.7917 37° Northeast 467 537 35,000  Level Washington Center
09:50AM 37.9950 -76.6906 38° Northeast 467 537 35,000  Level Washington Center
09:51AM 38.0981 -76.5892 38° Northeast 467 537 35,000  Level Washington Center
09:52AM 38.2011 -76.4847 39° Northeast 467 537 35,000  Level Washington Center
09:53AM 38.3042 -76.3828 38° Northeast 467 537 35,000  Level Washington Center
09:54AM 38.3964 -76.2989 35° Northeast 467 537 35,000  Level Washington Center
09:55AM 38.5011 -76.2019 36° Northeast 462 532 35,000 -60 Level Washington Center
09:56AM 38.6078 -76.1044 36° Northeast 456 525 34,900 -1,380 Descending Washington Center
09:57AM 38.7125 -76.0067 36° Northeast 461 531 32,200 -3,180 Descending Washington Center
09:58AM 38.8211 -75.9086 35° Northeast 461 531 28,500 -2,700 Descending Washington Center
09:59AM 38.9339 -75.8025 36° Northeast 476 548 27,000 -840 Descending Washington Center
10:00AM 39.0425 -75.6931 38° Northeast 489 563 26,900 -60 Descending Washington Center
10:01AM 39.1531 -75.5917 35° Northeast 489 563 26,900 -960 Level Washington Center
10:02AM 39.2633 -75.4869 36° Northeast 489 563 25,000 -2,280 Descending Washington Center
10:03AM 39.3736 -75.3903 34° Northeast 484 557 22,300 -2,040 Descending Washington Center
10:04AM 39.4797 -75.2958 34° Northeast 473 544 21,000 -1,560 Descending Washington Center
10:05AM 39.5836 -75.2011 35° Northeast 468 539 19,300 -1,800 Descending Washington Center
10:06AM 39.6939 -75.0981 36° Northeast 453 521 17,500 -1,740 Descending Washington Center
10:07AM 39.7933 -75.0108 34° Northeast 436 502 15,900 -1,920 Descending Washington Center
10:08AM 39.8825 -74.9397 31° Northeast 424 488 13,700 -2,040 Descending Washington Center
10:09AM 40.0000 -74.7833 46° Northeast 407 468 11,300 -1,560 Descending New York TRACON
10:10AM 40.0667 -74.6833 49° Northeast 405 466 10,300 -660 Descending New York TRACON
10:12AM 40.1500 -74.5667 47° Northeast 375 432 10,000 -480 Descending New York TRACON
10:12AM 40.2000 -74.5000 46° Northeast 315 362 9,400 -900 Descending New York TRACON
10:13AM 40.2667 -74.4167 44° Northeast 274 315 8,400 -1,200 Descending New York TRACON
10:14AM 40.3167 -74.3500 45° Northeast 260 299 7,100 -720 Descending New York TRACON
10:15AM 40.3667 -74.3000 37° Northeast 253 291 7,000 -60 Descending New York TRACON
10:16AM 40.4167 -74.2333 45° Northeast 253 291 7,000  Level New York TRACON
10:17AM 40.4667 -74.1667 45° Northeast 252 290 7,000 -600 Level New York TRACON
10:18AM 40.5167 -74.1000 45° Northeast 241 277 5,900 -1,380 Descending New York TRACON
10:19AM 40.5667 -74.0500 37° Northeast 225 259 4,300 -1,620 Descending New York TRACON
10:20AM 40.6167 -74.0167 27° Northeast 227 261 2,700 -900 Descending New York TRACON
10:21AM 40.6667 -73.9667 37° Northeast 214 246 2,500 -120 Descending New York TRACON
10:22AM 40.7000 -73.9333 37° Northeast 184 212 2,500 -360 Level New York TRACON
10:23AM 40.7333 -73.8833 49° Northeast 155 178 1,900 -780 Descending New York TRACON
10:24AM 40.7333 -73.8500 90° East 141 162 1,100 -900 Descending New York TRACON
10:25AM 40.7667 -73.8500 360° North 137 158 200 -840 Descending New York TRACON